sensor_id;sensor_type;location;lat;lon;timestamp;P1;durP1;ratioP1;P2;durP2;ratioP2
48524;SDS011;34316;51.514;-0.178;2023-12-20T00:00:52;151.70;;;103.22;;
48524;SDS011;34316;51.514;-0.178;2023-12-20T00:02:54;120.85;;;85.70;;
48524;SDS011;34316;51.514;-0.178;2023-12-20T00:04:56;104.50;;;71.10;;
48524;SDS011;34316;51.514;-0.178;2023-12-20T00:06:58;122.00;;;84.13;;
48524;SDS011;34316;51.514;-0.178;2023-12-20T00:09:00;112.70;;;77.82;;
48524;SDS011;34316;51.514;-0.178;2023-12-20T00:11:01;123.38;;;81.65;;
48524;SDS011;34316;51.514;-0.178;2023-12-20T00:13:03;134.95;;;91.57;;
48524;SDS011;34316;51.514;-0.178;2023-12-20T00:15:05;135.07;;;93.18;;
48524;SDS011;34316;51.514;-0.178;2023-12-20T00:17:08;136.23;;;95.72;;
48524;SDS011;34316;51.514;-0.178;2023-12-20T00:19:09;113.70;;;76.85;;
48524;SDS011;34316;51.514;-0.178;2023-12-20T00:21:12;136.43;;;94.00;;
48524;SDS011;34316;51.514;-0.178;2023-12-20T00:23:13;133.93;;;87.50;;
48524;SDS011;34316;51.514;-0.178;2023-12-20T00:25:15;128.73;;;87.97;;
48524;SDS011;34316;51.514;-0.178;2023-12-20T00:27:17;129.05;;;88.00;;
48524;SDS011;34316;51.514;-0.178;2023-12-20T00:29:19;126.25;;;85.30;;
48524;SDS011;34316;51.514;-0.178;2023-12-20T00:31:21;123.13;;;86.05;;
48524;SDS011;34316;51.514;-0.178;2023-12-20T00:33:23;130.75;;;94.03;;
48524;SDS011;34316;51.514;-0.178;2023-12-20T00:35:25;130.63;;;90.50;;
48524;SDS011;34316;51.514;-0.178;2023-12-20T00:37:27;126.43;;;86.72;;
48524;SDS011;34316;51.514;-0.178;2023-12-20T00:39:29;122.05;;;86.60;;
48524;SDS011;34316;51.514;-0.178;2023-12-20T00:41:31;117.95;;;80.75;;
48524;SDS011;34316;51.514;-0.178;2023-12-20T00:43:32;116.70;;;80.13;;
48524;SDS011;34316;51.514;-0.178;2023-12-20T00:45:34;111.28;;;77.07;;
48524;SDS011;34316;51.514;-0.178;2023-12-20T00:47:36;96.22;;;70.32;;
48524;SDS011;34316;51.514;-0.178;2023-12-20T00:49:38;104.07;;;72.82;;
48524;SDS011;34316;51.514;-0.178;2023-12-20T00:51:40;105.85;;;72.63;;
48524;SDS011;34316;51.514;-0.178;2023-12-20T00:53:42;109.10;;;71.57;;
48524;SDS011;34316;51.514;-0.178;2023-12-20T00:55:44;103.32;;;72.68;;
48524;SDS011;34316;51.514;-0.178;2023-12-20T00:57:46;100.47;;;70.10;;
48524;SDS011;34316;51.514;-0.178;2023-12-20T00:59:49;101.18;;;70.25;;
48524;SDS011;34316;51.514;-0.178;2023-12-20T01:01:51;96.28;;;68.32;;
48524;SDS011;34316;51.514;-0.178;2023-12-20T01:03:53;100.30;;;69.88;;
48524;SDS011;34316;51.514;-0.178;2023-12-20T01:06:05;111.63;;;78.20;;
48524;SDS011;34316;51.514;-0.178;2023-12-20T01:08:13;101.95;;;74.18;;
48524;SDS011;34316;51.514;-0.178;2023-12-20T01:10:15;111.05;;;74.80;;
48524;SDS011;34316;51.514;-0.178;2023-12-20T01:12:19;105.17;;;73.20;;
48524;SDS011;34316;51.514;-0.178;2023-12-20T01:14:21;103.10;;;71.45;;
48524;SDS011;34316;51.514;-0.178;2023-12-20T01:16:30;109.05;;;74.88;;
48524;SDS011;34316;51.514;-0.178;2023-12-20T01:18:32;106.82;;;71.68;;
48524;SDS011;34316;51.514;-0.178;2023-12-20T01:20:34;97.10;;;68.88;;
48524;SDS011;34316;51.514;-0.178;2023-12-20T01:22:36;102.50;;;69.03;;
48524;SDS011;34316;51.514;-0.178;2023-12-20T01:24:38;100.05;;;68.53;;
48524;SDS011;34316;51.514;-0.178;2023-12-20T01:26:40;107.30;;;71.63;;
48524;SDS011;34316;51.514;-0.178;2023-12-20T01:28:41;99.80;;;70.53;;
48524;SDS011;34316;51.514;-0.178;2023-12-20T01:30:43;98.57;;;68.07;;
48524;SDS011;34316;51.514;-0.178;2023-12-20T01:32:46;100.03;;;66.63;;
48524;SDS011;34316;51.514;-0.178;2023-12-20T01:34:48;100.53;;;72.00;;
48524;SDS011;34316;51.514;-0.178;2023-12-20T01:36:50;105.47;;;74.22;;
48524;SDS011;34316;51.514;-0.178;2023-12-20T01:38:52;111.13;;;79.72;;
48524;SDS011;34316;51.514;-0.178;2023-12-20T01:40:54;108.13;;;77.25;;
48524;SDS011;34316;51.514;-0.178;2023-12-20T01:43:06;108.80;;;77.38;;
48524;SDS011;34316;51.514;-0.178;2023-12-20T01:45:09;114.73;;;78.43;;
48524;SDS011;34316;51.514;-0.178;2023-12-20T01:47:11;113.25;;;78.35;;
48524;SDS011;34316;51.514;-0.178;2023-12-20T01:49:14;109.60;;;78.78;;
48524;SDS011;34316;51.514;-0.178;2023-12-20T01:51:17;107.75;;;70.97;;
48524;SDS011;34316;51.514;-0.178;2023-12-20T01:53:19;93.18;;;68.15;;
48524;SDS011;34316;51.514;-0.178;2023-12-20T01:55:21;82.93;;;60.90;;
48524;SDS011;34316;51.514;-0.178;2023-12-20T01:57:23;74.07;;;51.95;;
48524;SDS011;34316;51.514;-0.178;2023-12-20T01:59:25;77.88;;;54.65;;
48524;SDS011;34316;51.514;-0.178;2023-12-20T02:01:27;84.55;;;59.35;;
48524;SDS011;34316;51.514;-0.178;2023-12-20T02:03:30;79.30;;;56.05;;
48524;SDS011;34316;51.514;-0.178;2023-12-20T02:05:32;86.75;;;62.33;;
48524;SDS011;34316;51.514;-0.178;2023-12-20T02:07:34;82.50;;;58.42;;
48524;SDS011;34316;51.514;-0.178;2023-12-20T02:09:36;87.88;;;58.63;;
48524;SDS011;34316;51.514;-0.178;2023-12-20T02:11:39;90.53;;;62.37;;
48524;SDS011;34316;51.514;-0.178;2023-12-20T02:13:41;94.50;;;64.70;;
48524;SDS011;34316;51.514;-0.178;2023-12-20T02:15:43;92.10;;;63.72;;
48524;SDS011;34316;51.514;-0.178;2023-12-20T02:17:46;89.40;;;62.83;;
48524;SDS011;34316;51.514;-0.178;2023-12-20T02:22:04;86.72;;;58.00;;
48524;SDS011;34316;51.514;-0.178;2023-12-20T02:24:07;83.57;;;57.72;;
48524;SDS011;34316;51.514;-0.178;2023-12-20T02:26:09;94.93;;;67.18;;
48524;SDS011;34316;51.514;-0.178;2023-12-20T02:28:11;95.78;;;67.20;;
48524;SDS011;34316;51.514;-0.178;2023-12-20T02:30:14;110.22;;;77.03;;
48524;SDS011;34316;51.514;-0.178;2023-12-20T02:32:17;104.55;;;69.57;;
48524;SDS011;34316;51.514;-0.178;2023-12-20T02:34:19;97.32;;;67.72;;
48524;SDS011;34316;51.514;-0.178;2023-12-20T02:36:21;89.53;;;61.65;;
48524;SDS011;34316;51.514;-0.178;2023-12-20T02:38:23;81.97;;;53.40;;
48524;SDS011;34316;51.514;-0.178;2023-12-20T02:40:24;68.03;;;46.78;;
48524;SDS011;34316;51.514;-0.178;2023-12-20T02:42:26;55.35;;;37.33;;
48524;SDS011;34316;51.514;-0.178;2023-12-20T02:44:28;50.90;;;34.35;;
48524;SDS011;34316;51.514;-0.178;2023-12-20T02:46:30;54.28;;;34.17;;
48524;SDS011;34316;51.514;-0.178;2023-12-20T02:48:32;44.35;;;29.73;;
48524;SDS011;34316;51.514;-0.178;2023-12-20T02:50:34;42.03;;;28.25;;
48524;SDS011;34316;51.514;-0.178;2023-12-20T02:52:35;40.17;;;26.27;;
48524;SDS011;34316;51.514;-0.178;2023-12-20T02:54:37;40.50;;;26.70;;
48524;SDS011;34316;51.514;-0.178;2023-12-20T02:56:39;43.92;;;27.92;;
48524;SDS011;34316;51.514;-0.178;2023-12-20T02:58:41;39.90;;;26.38;;
48524;SDS011;34316;51.514;-0.178;2023-12-20T03:00:43;42.72;;;27.48;;
48524;SDS011;34316;51.514;-0.178;2023-12-20T03:02:45;40.63;;;27.02;;
48524;SDS011;34316;51.514;-0.178;2023-12-20T03:04:47;41.75;;;26.17;;
48524;SDS011;34316;51.514;-0.178;2023-12-20T03:06:49;41.33;;;28.65;;
48524;SDS011;34316;51.514;-0.178;2023-12-20T03:08:51;41.35;;;27.50;;
48524;SDS011;34316;51.514;-0.178;2023-12-20T03:10:52;42.58;;;30.63;;
48524;SDS011;34316;51.514;-0.178;2023-12-20T03:12:55;45.05;;;29.30;;
48524;SDS011;34316;51.514;-0.178;2023-12-20T03:14:56;43.03;;;30.00;;
48524;SDS011;34316;51.514;-0.178;2023-12-20T03:16:58;44.28;;;30.77;;
48524;SDS011;34316;51.514;-0.178;2023-12-20T03:19:01;48.63;;;33.35;;
48524;SDS011;34316;51.514;-0.178;2023-12-20T03:21:03;54.33;;;33.50;;
48524;SDS011;34316;51.514;-0.178;2023-12-20T03:23:06;47.38;;;35.05;;
48524;SDS011;34316;51.514;-0.178;2023-12-20T03:25:07;50.95;;;34.50;;
48524;SDS011;34316;51.514;-0.178;2023-12-20T03:27:10;55.50;;;37.83;;
48524;SDS011;34316;51.514;-0.178;2023-12-20T03:29:11;56.67;;;37.75;;
48524;SDS011;34316;51.514;-0.178;2023-12-20T03:31:13;54.30;;;39.92;;
48524;SDS011;34316;51.514;-0.178;2023-12-20T03:33:15;58.78;;;39.63;;
48524;SDS011;34316;51.514;-0.178;2023-12-20T03:35:17;60.85;;;42.35;;
48524;SDS011;34316;51.514;-0.178;2023-12-20T03:37:19;59.25;;;43.33;;
48524;SDS011;34316;51.514;-0.178;2023-12-20T03:39:21;65.80;;;46.15;;
48524;SDS011;34316;51.514;-0.178;2023-12-20T03:41:23;75.30;;;54.08;;
48524;SDS011;34316;51.514;-0.178;2023-12-20T03:43:24;89.28;;;59.05;;
48524;SDS011;34316;51.514;-0.178;2023-12-20T03:45:26;111.82;;;74.53;;
48524;SDS011;34316;51.514;-0.178;2023-12-20T03:47:28;120.50;;;80.85;;
48524;SDS011;34316;51.514;-0.178;2023-12-20T03:49:30;119.88;;;82.68;;
48524;SDS011;34316;51.514;-0.178;2023-12-20T03:51:32;90.22;;;65.00;;
48524;SDS011;34316;51.514;-0.178;2023-12-20T03:53:34;96.05;;;66.00;;
48524;SDS011;34316;51.514;-0.178;2023-12-20T03:55:36;95.38;;;65.20;;
48524;SDS011;34316;51.514;-0.178;2023-12-20T03:57:38;92.47;;;64.30;;
48524;SDS011;34316;51.514;-0.178;2023-12-20T03:59:40;108.20;;;74.50;;
48524;SDS011;34316;51.514;-0.178;2023-12-20T04:01:45;95.68;;;65.90;;
48524;SDS011;34316;51.514;-0.178;2023-12-20T04:03:47;94.38;;;64.65;;
48524;SDS011;34316;51.514;-0.178;2023-12-20T04:05:48;98.13;;;69.07;;
48524;SDS011;34316;51.514;-0.178;2023-12-20T04:07:50;103.93;;;70.68;;
48524;SDS011;34316;51.514;-0.178;2023-12-20T04:09:52;92.97;;;66.32;;
48524;SDS011;34316;51.514;-0.178;2023-12-20T04:11:54;88.53;;;61.65;;
48524;SDS011;34316;51.514;-0.178;2023-12-20T04:13:56;92.32;;;62.90;;
48524;SDS011;34316;51.514;-0.178;2023-12-20T04:15:58;102.40;;;70.45;;
48524;SDS011;34316;51.514;-0.178;2023-12-20T04:17:59;95.72;;;68.38;;
48524;SDS011;34316;51.514;-0.178;2023-12-20T04:20:01;94.88;;;66.03;;
48524;SDS011;34316;51.514;-0.178;2023-12-20T04:22:04;111.63;;;77.13;;
48524;SDS011;34316;51.514;-0.178;2023-12-20T04:24:06;131.32;;;86.38;;
48524;SDS011;34316;51.514;-0.178;2023-12-20T04:26:08;119.75;;;80.85;;
48524;SDS011;34316;51.514;-0.178;2023-12-20T04:28:10;123.45;;;81.93;;
48524;SDS011;34316;51.514;-0.178;2023-12-20T04:30:13;118.47;;;77.32;;
48524;SDS011;34316;51.514;-0.178;2023-12-20T04:32:15;129.27;;;87.15;;
48524;SDS011;34316;51.514;-0.178;2023-12-20T04:34:17;140.85;;;92.07;;
48524;SDS011;34316;51.514;-0.178;2023-12-20T04:36:19;146.50;;;96.55;;
48524;SDS011;34316;51.514;-0.178;2023-12-20T04:38:21;137.80;;;91.30;;
48524;SDS011;34316;51.514;-0.178;2023-12-20T04:40:23;146.70;;;95.03;;
48524;SDS011;34316;51.514;-0.178;2023-12-20T04:42:25;136.00;;;89.65;;
48524;SDS011;34316;51.514;-0.178;2023-12-20T04:44:26;144.93;;;96.03;;
48524;SDS011;34316;51.514;-0.178;2023-12-20T04:46:28;145.30;;;98.53;;
48524;SDS011;34316;51.514;-0.178;2023-12-20T04:48:30;145.20;;;97.88;;
48524;SDS011;34316;51.514;-0.178;2023-12-20T04:50:32;147.93;;;97.30;;
48524;SDS011;34316;51.514;-0.178;2023-12-20T04:52:34;145.25;;;95.22;;
48524;SDS011;34316;51.514;-0.178;2023-12-20T04:54:36;145.50;;;93.25;;
48524;SDS011;34316;51.514;-0.178;2023-12-20T04:56:38;137.95;;;93.60;;
48524;SDS011;34316;51.514;-0.178;2023-12-20T04:58:40;136.70;;;91.82;;
48524;SDS011;34316;51.514;-0.178;2023-12-20T05:00:43;141.93;;;91.65;;
48524;SDS011;34316;51.514;-0.178;2023-12-20T05:02:45;128.63;;;84.85;;
48524;SDS011;34316;51.514;-0.178;2023-12-20T05:04:47;122.38;;;82.10;;
48524;SDS011;34316;51.514;-0.178;2023-12-20T05:06:49;120.50;;;78.38;;
48524;SDS011;34316;51.514;-0.178;2023-12-20T05:08:51;103.35;;;66.40;;
48524;SDS011;34316;51.514;-0.178;2023-12-20T05:10:56;91.68;;;59.92;;
48524;SDS011;34316;51.514;-0.178;2023-12-20T05:12:58;94.63;;;61.50;;
48524;SDS011;34316;51.514;-0.178;2023-12-20T05:15:00;93.60;;;59.55;;
48524;SDS011;34316;51.514;-0.178;2023-12-20T05:17:02;97.18;;;59.97;;
48524;SDS011;34316;51.514;-0.178;2023-12-20T05:19:04;92.80;;;59.72;;
48524;SDS011;34316;51.514;-0.178;2023-12-20T05:21:08;92.85;;;59.53;;
48524;SDS011;34316;51.514;-0.178;2023-12-20T05:23:10;99.55;;;60.13;;
48524;SDS011;34316;51.514;-0.178;2023-12-20T05:25:13;90.45;;;58.55;;
48524;SDS011;34316;51.514;-0.178;2023-12-20T05:27:15;94.93;;;60.88;;
48524;SDS011;34316;51.514;-0.178;2023-12-20T05:29:16;106.00;;;61.45;;
48524;SDS011;34316;51.514;-0.178;2023-12-20T05:31:18;99.03;;;61.35;;
48524;SDS011;34316;51.514;-0.178;2023-12-20T05:33:20;100.55;;;61.83;;
48524;SDS011;34316;51.514;-0.178;2023-12-20T05:35:22;100.82;;;60.45;;
48524;SDS011;34316;51.514;-0.178;2023-12-20T05:37:24;109.35;;;66.55;;
48524;SDS011;34316;51.514;-0.178;2023-12-20T05:39:27;110.03;;;64.72;;
48524;SDS011;34316;51.514;-0.178;2023-12-20T05:41:29;161.18;;;69.32;;
48524;SDS011;34316;51.514;-0.178;2023-12-20T05:43:31;208.85;;;71.97;;
48524;SDS011;34316;51.514;-0.178;2023-12-20T05:45:34;191.48;;;72.75;;
48524;SDS011;34316;51.514;-0.178;2023-12-20T05:47:35;268.10;;;78.28;;
48524;SDS011;34316;51.514;-0.178;2023-12-20T05:49:38;250.60;;;75.85;;
48524;SDS011;34316;51.514;-0.178;2023-12-20T05:51:40;193.98;;;72.57;;
48524;SDS011;34316;51.514;-0.178;2023-12-20T05:53:42;138.82;;;69.50;;
48524;SDS011;34316;51.514;-0.178;2023-12-20T05:55:45;147.53;;;71.37;;
48524;SDS011;34316;51.514;-0.178;2023-12-20T05:57:47;189.38;;;73.97;;
48524;SDS011;34316;51.514;-0.178;2023-12-20T05:59:49;160.43;;;75.78;;
48524;SDS011;34316;51.514;-0.178;2023-12-20T06:01:51;248.20;;;79.28;;
48524;SDS011;34316;51.514;-0.178;2023-12-20T06:03:53;165.07;;;74.38;;
48524;SDS011;34316;51.514;-0.178;2023-12-20T06:05:55;173.32;;;75.22;;
48524;SDS011;34316;51.514;-0.178;2023-12-20T06:08:13;138.27;;;72.93;;
48524;SDS011;34316;51.514;-0.178;2023-12-20T06:10:16;262.75;;;80.32;;
48524;SDS011;34316;51.514;-0.178;2023-12-20T06:12:18;159.93;;;71.95;;
48524;SDS011;34316;51.514;-0.178;2023-12-20T06:14:20;164.80;;;73.70;;
48524;SDS011;34316;51.514;-0.178;2023-12-20T06:16:21;158.90;;;78.10;;
48524;SDS011;34316;51.514;-0.178;2023-12-20T06:18:23;137.85;;;76.28;;
48524;SDS011;34316;51.514;-0.178;2023-12-20T06:20:26;147.55;;;75.65;;
48524;SDS011;34316;51.514;-0.178;2023-12-20T06:22:28;154.55;;;78.70;;
48524;SDS011;34316;51.514;-0.178;2023-12-20T06:24:29;136.25;;;74.20;;
48524;SDS011;34316;51.514;-0.178;2023-12-20T06:26:31;168.80;;;76.53;;
48524;SDS011;34316;51.514;-0.178;2023-12-20T06:28:33;197.82;;;75.47;;
48524;SDS011;34316;51.514;-0.178;2023-12-20T06:30:35;137.63;;;70.78;;
48524;SDS011;34316;51.514;-0.178;2023-12-20T06:32:37;220.70;;;78.80;;
48524;SDS011;34316;51.514;-0.178;2023-12-20T06:34:40;153.48;;;72.80;;
48524;SDS011;34316;51.514;-0.178;2023-12-20T06:36:43;184.95;;;79.40;;
48524;SDS011;34316;51.514;-0.178;2023-12-20T06:38:44;220.68;;;76.50;;
48524;SDS011;34316;51.514;-0.178;2023-12-20T06:40:47;174.30;;;75.13;;
48524;SDS011;34316;51.514;-0.178;2023-12-20T06:42:49;179.43;;;74.93;;
48524;SDS011;34316;51.514;-0.178;2023-12-20T06:45:05;225.30;;;80.05;;
48524;SDS011;34316;51.514;-0.178;2023-12-20T06:47:07;148.02;;;71.47;;
48524;SDS011;34316;51.514;-0.178;2023-12-20T06:49:09;131.20;;;69.70;;
48524;SDS011;34316;51.514;-0.178;2023-12-20T06:51:13;132.80;;;71.38;;
48524;SDS011;34316;51.514;-0.178;2023-12-20T06:53:17;214.50;;;75.13;;
48524;SDS011;34316;51.514;-0.178;2023-12-20T06:55:18;133.52;;;71.53;;
48524;SDS011;34316;51.514;-0.178;2023-12-20T06:57:20;127.47;;;68.63;;
48524;SDS011;34316;51.514;-0.178;2023-12-20T06:59:22;124.50;;;69.85;;
48524;SDS011;34316;51.514;-0.178;2023-12-20T07:01:24;130.27;;;71.43;;
48524;SDS011;34316;51.514;-0.178;2023-12-20T07:03:26;250.82;;;84.97;;
48524;SDS011;34316;51.514;-0.178;2023-12-20T07:05:28;126.75;;;69.53;;
48524;SDS011;34316;51.514;-0.178;2023-12-20T07:07:30;121.88;;;69.18;;
48524;SDS011;34316;51.514;-0.178;2023-12-20T07:09:32;125.07;;;70.38;;
48524;SDS011;34316;51.514;-0.178;2023-12-20T07:11:34;134.23;;;71.57;;
48524;SDS011;34316;51.514;-0.178;2023-12-20T07:13:36;132.75;;;71.55;;
48524;SDS011;34316;51.514;-0.178;2023-12-20T07:15:38;132.50;;;70.72;;
48524;SDS011;34316;51.514;-0.178;2023-12-20T07:17:40;123.78;;;70.80;;
48524;SDS011;34316;51.514;-0.178;2023-12-20T07:19:41;127.28;;;73.00;;
48524;SDS011;34316;51.514;-0.178;2023-12-20T07:21:44;143.48;;;78.45;;
48524;SDS011;34316;51.514;-0.178;2023-12-20T07:23:45;165.93;;;82.68;;
48524;SDS011;34316;51.514;-0.178;2023-12-20T07:25:47;156.55;;;79.00;;
48524;SDS011;34316;51.514;-0.178;2023-12-20T07:27:49;160.10;;;82.57;;
48524;SDS011;34316;51.514;-0.178;2023-12-20T07:29:52;160.93;;;82.25;;
48524;SDS011;34316;51.514;-0.178;2023-12-20T07:31:54;178.00;;;85.82;;
48524;SDS011;34316;51.514;-0.178;2023-12-20T07:33:56;177.80;;;89.10;;
48524;SDS011;34316;51.514;-0.178;2023-12-20T07:35:59;163.48;;;85.03;;
48524;SDS011;34316;51.514;-0.178;2023-12-20T07:38:01;167.38;;;86.45;;
48524;SDS011;34316;51.514;-0.178;2023-12-20T07:40:03;163.80;;;84.53;;
48524;SDS011;34316;51.514;-0.178;2023-12-20T07:42:06;171.52;;;84.15;;
48524;SDS011;34316;51.514;-0.178;2023-12-20T07:44:08;163.48;;;83.80;;
48524;SDS011;34316;51.514;-0.178;2023-12-20T07:46:10;161.80;;;84.78;;
48524;SDS011;34316;51.514;-0.178;2023-12-20T07:48:13;186.32;;;92.80;;
48524;SDS011;34316;51.514;-0.178;2023-12-20T07:50:15;197.65;;;92.68;;
48524;SDS011;34316;51.514;-0.178;2023-12-20T07:52:18;177.60;;;89.10;;
48524;SDS011;34316;51.514;-0.178;2023-12-20T07:54:20;176.65;;;89.13;;
48524;SDS011;34316;51.514;-0.178;2023-12-20T07:56:22;184.48;;;91.43;;
48524;SDS011;34316;51.514;-0.178;2023-12-20T07:58:24;182.95;;;89.18;;
48524;SDS011;34316;51.514;-0.178;2023-12-20T08:00:45;186.98;;;91.22;;
48524;SDS011;34316;51.514;-0.178;2023-12-20T08:02:47;180.52;;;90.22;;
48524;SDS011;34316;51.514;-0.178;2023-12-20T08:04:48;194.40;;;93.35;;
48524;SDS011;34316;51.514;-0.178;2023-12-20T08:06:50;180.32;;;89.95;;
48524;SDS011;34316;51.514;-0.178;2023-12-20T08:08:52;216.13;;;95.20;;
48524;SDS011;34316;51.514;-0.178;2023-12-20T08:11:02;198.57;;;92.32;;
48524;SDS011;34316;51.514;-0.178;2023-12-20T08:13:04;199.02;;;93.95;;
48524;SDS011;34316;51.514;-0.178;2023-12-20T08:15:06;183.27;;;90.70;;
48524;SDS011;34316;51.514;-0.178;2023-12-20T08:17:08;198.00;;;94.68;;
48524;SDS011;34316;51.514;-0.178;2023-12-20T08:19:10;191.45;;;94.10;;
48524;SDS011;34316;51.514;-0.178;2023-12-20T08:21:12;177.82;;;91.13;;
48524;SDS011;34316;51.514;-0.178;2023-12-20T08:23:15;185.60;;;92.40;;
48524;SDS011;34316;51.514;-0.178;2023-12-20T08:25:17;182.10;;;91.38;;
48524;SDS011;34316;51.514;-0.178;2023-12-20T08:27:24;170.85;;;91.72;;
48524;SDS011;34316;51.514;-0.178;2023-12-20T08:29:27;178.18;;;92.13;;
48524;SDS011;34316;51.514;-0.178;2023-12-20T08:31:29;170.48;;;91.65;;
48524;SDS011;34316;51.514;-0.178;2023-12-20T08:33:31;182.02;;;93.07;;
48524;SDS011;34316;51.514;-0.178;2023-12-20T08:35:32;184.75;;;91.72;;
48524;SDS011;34316;51.514;-0.178;2023-12-20T08:37:34;166.77;;;89.82;;
48524;SDS011;34316;51.514;-0.178;2023-12-20T08:39:37;175.15;;;91.40;;
48524;SDS011;34316;51.514;-0.178;2023-12-20T08:41:40;167.23;;;89.75;;
48524;SDS011;34316;51.514;-0.178;2023-12-20T08:43:43;172.70;;;92.47;;
48524;SDS011;34316;51.514;-0.178;2023-12-20T08:45:45;188.05;;;94.20;;
48524;SDS011;34316;51.514;-0.178;2023-12-20T08:47:47;191.93;;;100.45;;
48524;SDS011;34316;51.514;-0.178;2023-12-20T08:49:50;181.38;;;97.35;;
48524;SDS011;34316;51.514;-0.178;2023-12-20T08:51:52;186.98;;;95.43;;
48524;SDS011;34316;51.514;-0.178;2023-12-20T08:53:54;186.77;;;97.95;;
48524;SDS011;34316;51.514;-0.178;2023-12-20T08:55:56;177.07;;;97.82;;
48524;SDS011;34316;51.514;-0.178;2023-12-20T08:58:02;182.60;;;96.72;;
48524;SDS011;34316;51.514;-0.178;2023-12-20T09:00:04;187.35;;;97.20;;
48524;SDS011;34316;51.514;-0.178;2023-12-20T09:02:09;179.73;;;96.07;;
48524;SDS011;34316;51.514;-0.178;2023-12-20T09:04:11;182.40;;;96.47;;
48524;SDS011;34316;51.514;-0.178;2023-12-20T09:06:13;175.40;;;95.45;;
48524;SDS011;34316;51.514;-0.178;2023-12-20T09:08:15;175.60;;;98.30;;
48524;SDS011;34316;51.514;-0.178;2023-12-20T09:10:16;170.25;;;97.78;;
48524;SDS011;34316;51.514;-0.178;2023-12-20T09:12:23;166.77;;;96.22;;
48524;SDS011;34316;51.514;-0.178;2023-12-20T09:14:25;170.18;;;95.70;;
48524;SDS011;34316;51.514;-0.178;2023-12-20T09:16:27;176.48;;;96.68;;
48524;SDS011;34316;51.514;-0.178;2023-12-20T09:18:29;177.18;;;99.03;;
48524;SDS011;34316;51.514;-0.178;2023-12-20T09:20:31;170.18;;;97.88;;
48524;SDS011;34316;51.514;-0.178;2023-12-20T09:22:34;176.00;;;97.13;;
48524;SDS011;34316;51.514;-0.178;2023-12-20T09:24:36;189.52;;;103.32;;
48524;SDS011;34316;51.514;-0.178;2023-12-20T09:26:39;181.65;;;101.15;;
48524;SDS011;34316;51.514;-0.178;2023-12-20T09:28:41;188.00;;;100.57;;
48524;SDS011;34316;51.514;-0.178;2023-12-20T09:30:43;186.63;;;98.65;;
48524;SDS011;34316;51.514;-0.178;2023-12-20T09:32:47;177.32;;;98.55;;
48524;SDS011;34316;51.514;-0.178;2023-12-20T09:34:49;182.27;;;101.10;;
48524;SDS011;34316;51.514;-0.178;2023-12-20T09:36:51;177.05;;;100.90;;
48524;SDS011;34316;51.514;-0.178;2023-12-20T09:38:53;185.85;;;101.22;;
48524;SDS011;34316;51.514;-0.178;2023-12-20T09:40:55;183.70;;;104.13;;
48524;SDS011;34316;51.514;-0.178;2023-12-20T09:42:58;169.77;;;100.22;;
48524;SDS011;34316;51.514;-0.178;2023-12-20T09:45:08;178.95;;;100.50;;
48524;SDS011;34316;51.514;-0.178;2023-12-20T09:47:11;180.02;;;100.05;;
48524;SDS011;34316;51.514;-0.178;2023-12-20T09:49:13;182.20;;;103.68;;
48524;SDS011;34316;51.514;-0.178;2023-12-20T09:51:16;189.68;;;105.78;;
48524;SDS011;34316;51.514;-0.178;2023-12-20T09:53:18;176.10;;;101.22;;
48524;SDS011;34316;51.514;-0.178;2023-12-20T09:55:21;168.90;;;99.97;;
48524;SDS011;34316;51.514;-0.178;2023-12-20T09:57:23;159.35;;;98.15;;
48524;SDS011;34316;51.514;-0.178;2023-12-20T09:59:25;161.80;;;93.88;;
48524;SDS011;34316;51.514;-0.178;2023-12-20T10:01:27;180.32;;;102.40;;
48524;SDS011;34316;51.514;-0.178;2023-12-20T10:03:30;180.73;;;103.18;;
48524;SDS011;34316;51.514;-0.178;2023-12-20T10:05:33;172.52;;;100.97;;
48524;SDS011;34316;51.514;-0.178;2023-12-20T10:07:35;168.23;;;98.72;;
48524;SDS011;34316;51.514;-0.178;2023-12-20T10:09:37;169.05;;;98.00;;
48524;SDS011;34316;51.514;-0.178;2023-12-20T10:11:39;167.45;;;97.90;;
48524;SDS011;34316;51.514;-0.178;2023-12-20T10:13:42;167.30;;;94.72;;
48524;SDS011;34316;51.514;-0.178;2023-12-20T10:15:44;165.32;;;98.18;;
48524;SDS011;34316;51.514;-0.178;2023-12-20T10:17:48;172.18;;;99.05;;
48524;SDS011;34316;51.514;-0.178;2023-12-20T10:19:51;166.90;;;98.90;;
48524;SDS011;34316;51.514;-0.178;2023-12-20T10:21:53;162.93;;;97.63;;
48524;SDS011;34316;51.514;-0.178;2023-12-20T10:23:55;164.00;;;100.03;;
48524;SDS011;34316;51.514;-0.178;2023-12-20T10:26:01;157.93;;;95.30;;
48524;SDS011;34316;51.514;-0.178;2023-12-20T10:28:10;161.32;;;95.80;;
48524;SDS011;34316;51.514;-0.178;2023-12-20T10:30:13;161.75;;;96.35;;
48524;SDS011;34316;51.514;-0.178;2023-12-20T10:32:23;171.80;;;97.03;;
48524;SDS011;34316;51.514;-0.178;2023-12-20T10:34:27;162.07;;;96.78;;
48524;SDS011;34316;51.514;-0.178;2023-12-20T10:36:30;174.75;;;100.93;;
48524;SDS011;34316;51.514;-0.178;2023-12-20T10:38:33;173.55;;;102.32;;
48524;SDS011;34316;51.514;-0.178;2023-12-20T10:40:36;174.38;;;103.28;;
48524;SDS011;34316;51.514;-0.178;2023-12-20T10:42:39;172.98;;;102.03;;
48524;SDS011;34316;51.514;-0.178;2023-12-20T10:44:42;178.77;;;100.60;;
48524;SDS011;34316;51.514;-0.178;2023-12-20T10:46:44;169.20;;;101.18;;
48524;SDS011;34316;51.514;-0.178;2023-12-20T10:48:53;174.02;;;102.78;;
48524;SDS011;34316;51.514;-0.178;2023-12-20T10:50:56;177.93;;;104.07;;
48524;SDS011;34316;51.514;-0.178;2023-12-20T10:52:58;168.82;;;101.10;;
48524;SDS011;34316;51.514;-0.178;2023-12-20T10:55:01;170.80;;;103.17;;
48524;SDS011;34316;51.514;-0.178;2023-12-20T10:57:03;181.10;;;103.38;;
48524;SDS011;34316;51.514;-0.178;2023-12-20T10:59:07;176.35;;;103.47;;
48524;SDS011;34316;51.514;-0.178;2023-12-20T11:01:13;185.50;;;106.80;;
48524;SDS011;34316;51.514;-0.178;2023-12-20T11:03:16;176.68;;;103.97;;
48524;SDS011;34316;51.514;-0.178;2023-12-20T11:08:22;183.48;;;104.13;;
48524;SDS011;34316;51.514;-0.178;2023-12-20T11:10:29;168.40;;;102.38;;
48524;SDS011;34316;51.514;-0.178;2023-12-20T11:14:59;179.65;;;105.75;;
48524;SDS011;34316;51.514;-0.178;2023-12-20T11:17:06;182.48;;;107.05;;
48524;SDS011;34316;51.514;-0.178;2023-12-20T11:19:09;179.13;;;105.72;;
48524;SDS011;34316;51.514;-0.178;2023-12-20T11:21:15;180.98;;;108.93;;
48524;SDS011;34316;51.514;-0.178;2023-12-20T11:23:17;186.98;;;109.97;;
48524;SDS011;34316;51.514;-0.178;2023-12-20T11:25:19;191.30;;;106.82;;
48524;SDS011;34316;51.514;-0.178;2023-12-20T11:27:22;197.38;;;111.10;;
48524;SDS011;34316;51.514;-0.178;2023-12-20T11:29:35;177.35;;;105.25;;
48524;SDS011;34316;51.514;-0.178;2023-12-20T11:31:40;173.80;;;100.28;;
48524;SDS011;34316;51.514;-0.178;2023-12-20T11:33:42;170.45;;;102.88;;
48524;SDS011;34316;51.514;-0.178;2023-12-20T11:35:45;171.18;;;96.95;;
48524;SDS011;34316;51.514;-0.178;2023-12-20T11:37:47;171.32;;;99.88;;
48524;SDS011;34316;51.514;-0.178;2023-12-20T11:39:56;170.93;;;98.75;;
48524;SDS011;34316;51.514;-0.178;2023-12-20T11:42:05;174.93;;;95.97;;
48524;SDS011;34316;51.514;-0.178;2023-12-20T11:44:08;162.88;;;95.57;;
48524;SDS011;34316;51.514;-0.178;2023-12-20T11:46:10;160.13;;;92.00;;